sensor_id;sensor_type;location;lat;lon;timestamp;pressure;altitude;pressure_sealevel;temperature;humidity
71107;BME280;58763;47.982;11.516;2023-10-19T00:00:19;92729.28;;;9.39;82.09
71107;BME280;58763;47.982;11.516;2023-10-19T00:02:48;92724.84;;;9.43;82.05
71107;BME280;58763;47.982;11.516;2023-10-19T00:05:17;92724.72;;;9.48;81.25
71107;BME280;58763;47.982;11.516;2023-10-19T00:07:43;92711.56;;;9.55;81.02
71107;BME280;58763;47.982;11.516;2023-10-19T00:10:09;92710.25;;;9.44;80.17
71107;BME280;58763;47.982;11.516;2023-10-19T00:12:36;92708.66;;;9.43;80.68
71107;BME280;58763;47.982;11.516;2023-10-19T00:15:03;92713.09;;;9.39;80.75
71107;BME280;58763;47.982;11.516;2023-10-19T00:17:29;92714.72;;;9.40;80.86
71107;BME280;58763;47.982;11.516;2023-10-19T00:19:58;92720.91;;;9.49;80.63
71107;BME280;58763;47.982;11.516;2023-10-19T00:22:43;92707.13;;;9.59;79.32
71107;BME280;58763;47.982;11.516;2023-10-19T00:25:09;92705.38;;;9.54;79.49
71107;BME280;58763;47.982;11.516;2023-10-19T00:27:39;92706.47;;;9.45;79.70
71107;BME280;58763;47.982;11.516;2023-10-19T00:30:06;92700.09;;;9.41;79.87
71107;BME280;58763;47.982;11.516;2023-10-19T00:32:32;92693.75;;;9.45;80.10
71107;BME280;58763;47.982;11.516;2023-10-19T00:34:59;92697.09;;;9.42;80.85
71107;BME280;58763;47.982;11.516;2023-10-19T00:37:33;92699.94;;;9.46;81.11
71107;BME280;58763;47.982;11.516;2023-10-19T00:40:11;92695.22;;;9.51;80.21
71107;BME280;58763;47.982;11.516;2023-10-19T00:43:03;92695.06;;;9.65;80.17
71107;BME280;58763;47.982;11.516;2023-10-19T00:45:34;92693.19;;;9.65;80.20
71107;BME280;58763;47.982;11.516;2023-10-19T00:48:06;92686.50;;;9.71;80.49
71107;BME280;58763;47.982;11.516;2023-10-19T00:50:33;92683.19;;;9.74;80.62
71107;BME280;58763;47.982;11.516;2023-10-19T00:53:01;92676.19;;;9.91;80.27
71107;BME280;58763;47.982;11.516;2023-10-19T00:55:32;92694.13;;;10.04;79.80
71107;BME280;58763;47.982;11.516;2023-10-19T00:58:00;92685.06;;;10.08;80.14
71107;BME280;58763;47.982;11.516;2023-10-19T01:00:35;92690.38;;;10.22;79.08
71107;BME280;58763;47.982;11.516;2023-10-19T01:03:10;92686.06;;;10.21;79.37
71107;BME280;58763;47.982;11.516;2023-10-19T01:05:39;92691.94;;;10.23;79.31
71107;BME280;58763;47.982;11.516;2023-10-19T01:08:06;92698.44;;;10.39;78.99
71107;BME280;58763;47.982;11.516;2023-10-19T01:10:56;92699.25;;;10.39;78.72
71107;BME280;58763;47.982;11.516;2023-10-19T01:13:22;92697.00;;;10.41;78.42
71107;BME280;58763;47.982;11.516;2023-10-19T01:15:59;92698.91;;;10.50;78.21
71107;BME280;58763;47.982;11.516;2023-10-19T01:18:26;92698.28;;;10.44;78.49
71107;BME280;58763;47.982;11.516;2023-10-19T01:20:58;92693.81;;;10.57;78.09
71107;BME280;58763;47.982;11.516;2023-10-19T01:23:32;92694.88;;;10.64;78.31
71107;BME280;58763;47.982;11.516;2023-10-19T01:26:00;92690.13;;;10.70;78.67
71107;BME280;58763;47.982;11.516;2023-10-19T01:28:32;92669.63;;;10.69;78.60
71107;BME280;58763;47.982;11.516;2023-10-19T01:31:12;92684.72;;;10.70;77.42
71107;BME280;58763;47.982;11.516;2023-10-19T01:33:57;92680.88;;;10.79;77.95
71107;BME280;58763;47.982;11.516;2023-10-19T01:36:24;92680.22;;;10.82;77.45
71107;BME280;58763;47.982;11.516;2023-10-19T01:38:52;92684.19;;;10.85;78.08
71107;BME280;58763;47.982;11.516;2023-10-19T01:41:20;92677.03;;;10.89;77.27
71107;BME280;58763;47.982;11.516;2023-10-19T01:43:49;92687.66;;;10.94;77.23
71107;BME280;58763;47.982;11.516;2023-10-19T01:46:17;92684.16;;;10.93;76.66
71107;BME280;58763;47.982;11.516;2023-10-19T01:48:52;92685.91;;;10.98;76.64
71107;BME280;58763;47.982;11.516;2023-10-19T01:51:22;92687.97;;;10.92;76.55
71107;BME280;58763;47.982;11.516;2023-10-19T01:54:09;92692.75;;;10.95;76.16
71107;BME280;58763;47.982;11.516;2023-10-19T01:56:35;92677.94;;;10.93;76.92
71107;BME280;58763;47.982;11.516;2023-10-19T01:59:05;92670.31;;;10.95;76.68
71107;BME280;58763;47.982;11.516;2023-10-19T02:01:32;92670.47;;;10.90;76.90
71107;BME280;58763;47.982;11.516;2023-10-19T02:04:00;92674.03;;;10.82;77.54
71107;BME280;58763;47.982;11.516;2023-10-19T02:06:31;92678.19;;;10.71;78.40
71107;BME280;58763;47.982;11.516;2023-10-19T02:09:06;92689.78;;;10.71;78.51
71107;BME280;58763;47.982;11.516;2023-10-19T02:11:40;92690.13;;;10.70;78.66
71107;BME280;58763;47.982;11.516;2023-10-19T02:14:11;92683.59;;;10.71;79.03
71107;BME280;58763;47.982;11.516;2023-10-19T02:16:43;92682.03;;;10.61;79.29
71107;BME280;58763;47.982;11.516;2023-10-19T02:19:13;92673.75;;;10.58;79.70
71107;BME280;58763;47.982;11.516;2023-10-19T02:21:39;92679.63;;;10.68;79.55
71107;BME280;58763;47.982;11.516;2023-10-19T02:24:07;92680.44;;;10.69;79.71
71107;BME280;58763;47.982;11.516;2023-10-19T02:26:33;92672.97;;;10.57;80.19
71107;BME280;58763;47.982;11.516;2023-10-19T02:28:59;92669.03;;;10.55;80.33
71107;BME280;58763;47.982;11.516;2023-10-19T02:31:25;92666.47;;;10.58;80.67
71107;BME280;58763;47.982;11.516;2023-10-19T02:33:52;92663.44;;;10.51;81.04
71107;BME280;58763;47.982;11.516;2023-10-19T02:36:28;92661.56;;;10.52;81.25
71107;BME280;58763;47.982;11.516;2023-10-19T02:38:57;92661.22;;;10.53;81.42
71107;BME280;58763;47.982;11.516;2023-10-19T02:41:29;92661.84;;;10.59;81.15
71107;BME280;58763;47.982;11.516;2023-10-19T02:43:56;92663.25;;;10.65;81.07
71107;BME280;58763;47.982;11.516;2023-10-19T02:46:38;92655.94;;;10.65;80.45
71107;BME280;58763;47.982;11.516;2023-10-19T02:49:05;92659.09;;;10.76;80.61
71107;BME280;58763;47.982;11.516;2023-10-19T02:51:40;92655.28;;;10.77;80.35
71107;BME280;58763;47.982;11.516;2023-10-19T02:54:07;92650.97;;;10.84;80.00
71107;BME280;58763;47.982;11.516;2023-10-19T02:56:34;92649.81;;;10.85;80.01
71107;BME280;58763;47.982;11.516;2023-10-19T02:59:05;92651.56;;;10.90;79.66
71107;BME280;58763;47.982;11.516;2023-10-19T03:01:31;92650.13;;;10.92;79.13
71107;BME280;58763;47.982;11.516;2023-10-19T03:04:00;92647.09;;;10.94;79.00
71107;BME280;58763;47.982;11.516;2023-10-19T03:06:28;92647.41;;;11.01;78.83
71107;BME280;58763;47.982;11.516;2023-10-19T03:09:05;92641.19;;;11.00;78.64
71107;BME280;58763;47.982;11.516;2023-10-19T03:11:39;92634.88;;;10.88;79.34
71107;BME280;58763;47.982;11.516;2023-10-19T03:14:07;92633.28;;;10.87;79.27
71107;BME280;58763;47.982;11.516;2023-10-19T03:16:35;92640.13;;;10.84;79.51
71107;BME280;58763;47.982;11.516;2023-10-19T03:19:02;92639.81;;;10.86;79.14
71107;BME280;58763;47.982;11.516;2023-10-19T03:21:27;92634.56;;;10.89;78.45
71107;BME280;58763;47.982;11.516;2023-10-19T03:23:54;92633.28;;;10.87;79.36
71107;BME280;58763;47.982;11.516;2023-10-19T03:26:22;92633.75;;;10.89;79.30
71107;BME280;58763;47.982;11.516;2023-10-19T03:28:49;92637.38;;;10.93;78.79
71107;BME280;58763;47.982;11.516;2023-10-19T03:31:21;92629.28;;;10.93;79.08
71107;BME280;58763;47.982;11.516;2023-10-19T03:33:49;92627.22;;;10.90;79.15
71107;BME280;58763;47.982;11.516;2023-10-19T03:36:24;92616.59;;;10.85;79.18
71107;BME280;58763;47.982;11.516;2023-10-19T03:38:50;92618.50;;;10.84;79.74
71107;BME280;58763;47.982;11.516;2023-10-19T03:41:21;92620.59;;;10.79;79.79
71107;BME280;58763;47.982;11.516;2023-10-19T03:43:51;92610.56;;;10.79;79.98
71107;BME280;58763;47.982;11.516;2023-10-19T03:46:20;92604.53;;;10.74;80.30
71107;BME280;58763;47.982;11.516;2023-10-19T03:48:57;92601.94;;;10.86;79.86
71107;BME280;58763;47.982;11.516;2023-10-19T03:51:41;92606.38;;;10.90;79.94
71107;BME280;58763;47.982;11.516;2023-10-19T03:54:27;92605.09;;;10.96;79.60
71107;BME280;58763;47.982;11.516;2023-10-19T03:56:54;92602.34;;;11.05;79.20
71107;BME280;58763;47.982;11.516;2023-10-19T03:59:22;92601.22;;;11.06;79.37
71107;BME280;58763;47.982;11.516;2023-10-19T04:01:49;92588.19;;;10.99;79.39
71107;BME280;58763;47.982;11.516;2023-10-19T04:04:15;92590.59;;;11.01;79.94
71107;BME280;58763;47.982;11.516;2023-10-19T04:06:42;92591.19;;;11.06;79.63
71107;BME280;58763;47.982;11.516;2023-10-19T04:09:15;92601.97;;;11.15;79.81
71107;BME280;58763;47.982;11.516;2023-10-19T04:11:43;92607.19;;;11.20;79.90
71107;BME280;58763;47.982;11.516;2023-10-19T04:14:16;92603.19;;;11.26;79.58
71107;BME280;58763;47.982;11.516;2023-10-19T04:16:42;92600.59;;;11.30;79.01
71107;BME280;58763;47.982;11.516;2023-10-19T04:19:10;92599.13;;;11.41;78.41
71107;BME280;58763;47.982;11.516;2023-10-19T04:21:36;92604.28;;;11.54;77.50
71107;BME280;58763;47.982;11.516;2023-10-19T04:24:06;92596.88;;;11.63;76.59
71107;BME280;58763;47.982;11.516;2023-10-19T04:26:33;92594.28;;;11.67;77.45
71107;BME280;58763;47.982;11.516;2023-10-19T04:29:06;92599.69;;;11.67;77.59
71107;BME280;58763;47.982;11.516;2023-10-19T04:31:36;92596.53;;;11.65;77.74
71107;BME280;58763;47.982;11.516;2023-10-19T04:34:03;92587.38;;;11.57;77.82
71107;BME280;58763;47.982;11.516;2023-10-19T04:36:33;92589.47;;;11.52;78.48
71107;BME280;58763;47.982;11.516;2023-10-19T04:39:01;92579.56;;;11.56;77.92
71107;BME280;58763;47.982;11.516;2023-10-19T04:41:28;92587.38;;;11.57;77.27
71107;BME280;58763;47.982;11.516;2023-10-19T04:43:53;92588.03;;;11.54;76.82
71107;BME280;58763;47.982;11.516;2023-10-19T04:46:20;92578.00;;;11.55;77.21
71107;BME280;58763;47.982;11.516;2023-10-19T04:48:45;92570.66;;;11.55;77.09
71107;BME280;58763;47.982;11.516;2023-10-19T04:51:12;92581.00;;;11.53;76.93
71107;BME280;58763;47.982;11.516;2023-10-19T04:53:38;92576.16;;;11.67;75.98
71107;BME280;58763;47.982;11.516;2023-10-19T04:56:05;92576.31;;;11.71;76.12
71107;BME280;58763;47.982;11.516;2023-10-19T04:58:34;92572.47;;;11.72;76.85
71107;BME280;58763;47.982;11.516;2023-10-19T05:01:00;92574.50;;;11.75;76.80
71107;BME280;58763;47.982;11.516;2023-10-19T05:03:29;92572.88;;;11.83;76.81
71107;BME280;58763;47.982;11.516;2023-10-19T05:05:55;92579.72;;;11.80;77.51
71107;BME280;58763;47.982;11.516;2023-10-19T05:08:23;92575.50;;;11.91;77.09
71107;BME280;58763;47.982;11.516;2023-10-19T05:10:52;92574.75;;;12.03;76.26
71107;BME280;58763;47.982;11.516;2023-10-19T05:13:21;92577.75;;;11.89;76.53
71107;BME280;58763;47.982;11.516;2023-10-19T05:15:47;92576.41;;;11.95;76.41
71107;BME280;58763;47.982;11.516;2023-10-19T05:18:12;92579.78;;;11.92;76.60
71107;BME280;58763;47.982;11.516;2023-10-19T05:20:38;92583.50;;;11.88;76.95
71107;BME280;58763;47.982;11.516;2023-10-19T05:23:07;92578.91;;;12.00;77.16
71107;BME280;58763;47.982;11.516;2023-10-19T05:25:34;92579.63;;;12.09;75.87
71107;BME280;58763;47.982;11.516;2023-10-19T05:28:04;92579.97;;;12.08;76.12
71107;BME280;58763;47.982;11.516;2023-10-19T05:30:30;92574.44;;;12.16;75.51
71107;BME280;58763;47.982;11.516;2023-10-19T05:32:57;92579.00;;;12.24;75.07
71107;BME280;58763;47.982;11.516;2023-10-19T05:35:25;92577.53;;;12.27;74.60
71107;BME280;58763;47.982;11.516;2023-10-19T05:37:52;92572.41;;;12.46;73.99
71107;BME280;58763;47.982;11.516;2023-10-19T05:40:18;92567.47;;;12.60;73.12
71107;BME280;58763;47.982;11.516;2023-10-19T05:42:45;92571.94;;;12.56;73.37
71107;BME280;58763;47.982;11.516;2023-10-19T05:45:12;92567.66;;;12.67;72.55
71107;BME280;58763;47.982;11.516;2023-10-19T05:47:38;92567.59;;;12.76;72.19
71107;BME280;58763;47.982;11.516;2023-10-19T05:50:04;92570.75;;;12.78;72.54
71107;BME280;58763;47.982;11.516;2023-10-19T05:52:30;92567.38;;;12.81;72.02
71107;BME280;58763;47.982;11.516;2023-10-19T05:54:56;92579.34;;;13.04;71.06
71107;BME280;58763;47.982;11.516;2023-10-19T05:57:23;92575.53;;;13.17;70.74
71107;BME280;58763;47.982;11.516;2023-10-19T05:59:49;92569.88;;;13.10;70.63
71107;BME280;58763;47.982;11.516;2023-10-19T06:02:15;92572.03;;;13.16;71.16
71107;BME280;58763;47.982;11.516;2023-10-19T06:04:40;92579.34;;;13.04;71.59
71107;BME280;58763;47.982;11.516;2023-10-19T06:07:06;92573.13;;;13.03;71.96
71107;BME280;58763;47.982;11.516;2023-10-19T06:09:32;92573.50;;;13.02;72.55
71107;BME280;58763;47.982;11.516;2023-10-19T06:11:57;92573.13;;;12.91;72.70
71107;BME280;58763;47.982;11.516;2023-10-19T06:14:23;92573.03;;;12.88;73.51
71107;BME280;58763;47.982;11.516;2023-10-19T06:16:49;92568.81;;;13.02;73.52
71107;BME280;58763;47.982;11.516;2023-10-19T06:19:15;92579.81;;;12.94;73.10
71107;BME280;58763;47.982;11.516;2023-10-19T06:21:41;92578.34;;;12.96;72.88
71107;BME280;58763;47.982;11.516;2023-10-19T06:24:07;92581.16;;;12.88;73.14
71107;BME280;58763;47.982;11.516;2023-10-19T06:26:33;92571.53;;;12.78;74.04
71107;BME280;58763;47.982;11.516;2023-10-19T06:28:59;92581.38;;;12.71;74.44
71107;BME280;58763;47.982;11.516;2023-10-19T06:31:25;92579.66;;;12.66;74.57
71107;BME280;58763;47.982;11.516;2023-10-19T06:33:52;92584.19;;;12.62;74.71
71107;BME280;58763;47.982;11.516;2023-10-19T06:36:17;92584.84;;;12.59;75.10
71107;BME280;58763;47.982;11.516;2023-10-19T06:38:44;92581.34;;;12.59;75.18
71107;BME280;58763;47.982;11.516;2023-10-19T06:41:14;92577.28;;;12.53;76.19
71107;BME280;58763;47.982;11.516;2023-10-19T06:43:40;92574.66;;;12.56;75.57
71107;BME280;58763;47.982;11.516;2023-10-19T06:46:07;92569.25;;;12.56;75.56
71107;BME280;58763;47.982;11.516;2023-10-19T06:48:36;92570.69;;;12.54;75.21
71107;BME280;58763;47.982;11.516;2023-10-19T06:51:01;92578.28;;;12.48;75.87
71107;BME280;58763;47.982;11.516;2023-10-19T06:53:27;92567.88;;;12.50;76.33
71107;BME280;58763;47.982;11.516;2023-10-19T06:55:53;92562.91;;;12.52;76.27
71107;BME280;58763;47.982;11.516;2023-10-19T06:58:18;92558.63;;;12.63;75.50
71107;BME280;58763;47.982;11.516;2023-10-19T07:00:47;92567.66;;;12.67;75.77
71107;BME280;58763;47.982;11.516;2023-10-19T07:03:22;92560.56;;;12.75;75.98
71107;BME280;58763;47.982;11.516;2023-10-19T07:05:48;92559.78;;;12.86;75.91
71107;BME280;58763;47.982;11.516;2023-10-19T07:08:15;92560.00;;;12.81;76.55
71107;BME280;58763;47.982;11.516;2023-10-19T07:10:41;92564.75;;;12.84;76.67
71107;BME280;58763;47.982;11.516;2023-10-19T07:13:08;92566.59;;;12.92;76.15
71107;BME280;58763;47.982;11.516;2023-10-19T07:15:34;92561.84;;;13.01;76.56
71107;BME280;58763;47.982;11.516;2023-10-19T07:17:59;92561.25;;;12.96;76.05
71107;BME280;58763;47.982;11.516;2023-10-19T07:20:26;92565.78;;;12.92;74.97
71107;BME280;58763;47.982;11.516;2023-10-19T07:22:59;92559.56;;;13.03;75.92
71107;BME280;58763;47.982;11.516;2023-10-19T07:25:31;92566.28;;;13.18;76.26
71107;BME280;58763;47.982;11.516;2023-10-19T07:27:56;92566.72;;;13.20;75.50
71107;BME280;58763;47.982;11.516;2023-10-19T07:30:25;92569.09;;;13.22;76.40
71107;BME280;58763;47.982;11.516;2023-10-19T07:32:54;92572.69;;;13.26;75.02
71107;BME280;58763;47.982;11.516;2023-10-19T07:35:21;92579.16;;;13.21;74.70
71107;BME280;58763;47.982;11.516;2023-10-19T07:37:47;92574.88;;;13.20;74.58
71107;BME280;58763;47.982;11.516;2023-10-19T07:40:16;92569.31;;;13.29;74.58
71107;BME280;58763;47.982;11.516;2023-10-19T07:42:44;92574.06;;;13.32;74.78
71107;BME280;58763;47.982;11.516;2023-10-19T07:45:09;92563.88;;;13.29;75.21
71107;BME280;58763;47.982;11.516;2023-10-19T07:47:40;92561.72;;;13.34;75.39
71107;BME280;58763;47.982;11.516;2023-10-19T07:50:13;92555.94;;;13.36;75.15
71107;BME280;58763;47.982;11.516;2023-10-19T07:52:46;92558.53;;;13.44;75.00
71107;BME280;58763;47.982;11.516;2023-10-19T07:55:15;92559.22;;;13.41;75.55
71107;BME280;58763;47.982;11.516;2023-10-19T07:57:42;92553.47;;;13.31;76.02
71107;BME280;58763;47.982;11.516;2023-10-19T08:00:09;92555.03;;;13.44;76.98
71107;BME280;58763;47.982;11.516;2023-10-19T08:02:36;92546.41;;;13.54;77.59
71107;BME280;58763;47.982;11.516;2023-10-19T08:05:04;92542.34;;;13.60;77.66
71107;BME280;58763;47.982;11.516;2023-10-19T08:07:32;92535.31;;;13.59;77.83
71107;BME280;58763;47.982;11.516;2023-10-19T08:10:00;92536.03;;;13.56;77.15
71107;BME280;58763;47.982;11.516;2023-10-19T08:12:27;92536.34;;;13.54;77.61
71107;BME280;58763;47.982;11.516;2023-10-19T08:14:53;92533.47;;;13.63;77.54
71107;BME280;58763;47.982;11.516;2023-10-19T08:17:21;92530.28;;;13.73;77.35
71107;BME280;58763;47.982;11.516;2023-10-19T08:19:47;92526.41;;;13.86;75.82
71107;BME280;58763;47.982;11.516;2023-10-19T08:22:13;92520.78;;;13.79;75.93
71107;BME280;58763;47.982;11.516;2023-10-19T08:24:40;92517.47;;;13.85;76.37
71107;BME280;58763;47.982;11.516;2023-10-19T08:27:09;92513.56;;;13.99;75.95
71107;BME280;58763;47.982;11.516;2023-10-19T08:29:37;92519.88;;;14.03;75.54
71107;BME280;58763;47.982;11.516;2023-10-19T08:32:02;92525.78;;;14.05;76.00
71107;BME280;58763;47.982;11.516;2023-10-19T08:34:28;92526.66;;;14.09;76.15
71107;BME280;58763;47.982;11.516;2023-10-19T08:36:55;92521.50;;;14.19;76.51
71107;BME280;58763;47.982;11.516;2023-10-19T08:39:21;92519.91;;;14.46;74.83
71107;BME280;58763;47.982;11.516;2023-10-19T08:41:50;92515.34;;;14.34;75.58
71107;BME280;58763;47.982;11.516;2023-10-19T08:44:19;92506.03;;;14.35;76.16
71107;BME280;58763;47.982;11.516;2023-10-19T08:46:45;92515.97;;;14.59;74.92
71107;BME280;58763;47.982;11.516;2023-10-19T08:49:15;92516.50;;;14.65;74.86
71107;BME280;58763;47.982;11.516;2023-10-19T08:51:46;92516.25;;;14.70;75.48
71107;BME280;58763;47.982;11.516;2023-10-19T08:54:15;92511.13;;;14.68;75.53
71107;BME280;58763;47.982;11.516;2023-10-19T08:56:41;92510.72;;;14.82;74.85
71107;BME280;58763;47.982;11.516;2023-10-19T08:59:08;92500.00;;;14.89;74.50
71107;BME280;58763;47.982;11.516;2023-10-19T09:01:37;92509.38;;;14.91;74.84
71107;BME280;58763;47.982;11.516;2023-10-19T09:04:04;92509.91;;;14.97;74.68
71107;BME280;58763;47.982;11.516;2023-10-19T09:06:34;92503.50;;;15.05;74.17
71107;BME280;58763;47.982;11.516;2023-10-19T09:09:14;92508.22;;;15.08;74.64
71107;BME280;58763;47.982;11.516;2023-10-19T09:11:45;92498.75;;;15.02;74.84
71107;BME280;58763;47.982;11.516;2023-10-19T09:14:12;92506.38;;;14.96;76.19
71107;BME280;58763;47.982;11.516;2023-10-19T09:16:52;92510.78;;;15.16;75.17
71107;BME280;58763;47.982;11.516;2023-10-19T09:19:40;92500.97;;;15.31;75.89
71107;BME280;58763;47.982;11.516;2023-10-19T09:22:08;92509.34;;;15.22;76.51
71107;BME280;58763;47.982;11.516;2023-10-19T09:24:43;92514.25;;;15.33;76.27
71107;BME280;58763;47.982;11.516;2023-10-19T09:27:10;92524.09;;;15.37;75.24
71107;BME280;58763;47.982;11.516;2023-10-19T09:29:36;92507.47;;;15.27;74.90
71107;BME280;58763;47.982;11.516;2023-10-19T09:32:03;92513.41;;;15.13;74.96
71107;BME280;58763;47.982;11.516;2023-10-19T09:34:30;92496.19;;;15.09;75.83
71107;BME280;58763;47.982;11.516;2023-10-19T09:37:02;92492.84;;;15.15;76.33
71107;BME280;58763;47.982;11.516;2023-10-19T09:39:29;92490.81;;;15.12;76.27
71107;BME280;58763;47.982;11.516;2023-10-19T09:42:09;92486.19;;;15.13;77.10
71107;BME280;58763;47.982;11.516;2023-10-19T09:44:48;92484.41;;;15.20;77.66
71107;BME280;58763;47.982;11.516;2023-10-19T09:47:30;92488.50;;;15.46;77.44
71107;BME280;58763;47.982;11.516;2023-10-19T09:50:02;92474.78;;;15.42;77.48
71107;BME280;58763;47.982;11.516;2023-10-19T09:52:31;92480.22;;;15.42;76.99
71107;BME280;58763;47.982;11.516;2023-10-19T09:55:09;92479.97;;;15.47;76.83
71107;BME280;58763;47.982;11.516;2023-10-19T10:00:13;92483.59;;;15.70;76.48
71107;BME280;58763;47.982;11.516;2023-10-19T10:02:42;92480.22;;;15.77;76.69
71107;BME280;58763;47.982;11.516;2023-10-19T10:11:19;92488.16;;;16.24;74.86
71107;BME280;58763;47.982;11.516;2023-10-19T10:13:46;92482.84;;;16.31;74.29
71107;BME280;58763;47.982;11.516;2023-10-19T10:16:25;92485.97;;;16.33;72.76
71107;BME280;58763;47.982;11.516;2023-10-19T10:18:55;92481.06;;;16.42;70.56
71107;BME280;58763;47.982;11.516;2023-10-19T10:21:24;92465.41;;;16.58;69.18
71107;BME280;58763;47.982;11.516;2023-10-19T10:23:58;92469.66;;;16.55;70.33
71107;BME280;58763;47.982;11.516;2023-10-19T10:26:26;92464.00;;;16.45;70.43
71107;BME280;58763;47.982;11.516;2023-10-19T10:29:15;92453.84;;;16.45;71.31
71107;BME280;58763;47.982;11.516;2023-10-19T10:31:48;92443.72;;;16.46;70.07
71107;BME280;58763;47.982;11.516;2023-10-19T10:37:11;92440.41;;;16.79;71.27
71107;BME280;58763;47.982;11.516;2023-10-19T10:39:39;92442.03;;;16.83;70.98
71107;BME280;58763;47.982;11.516;2023-10-19T10:42:10;92444.56;;;16.95;70.20
71107;BME280;58763;47.982;11.516;2023-10-19T10:47:09;92436.81;;;17.23;69.02
71107;BME280;58763;47.982;11.516;2023-10-19T10:49:59;92440.28;;;17.20;68.36
71107;BME280;58763;47.982;11.516;2023-10-19T10:54:59;92437.63;;;17.27;67.64
71107;BME280;58763;47.982;11.516;2023-10-19T10:57:33;92436.94;;;17.34;67.68
71107;BME280;58763;47.982;11.516;2023-10-19T11:00:07;92443.41;;;17.49;67.24
71107;BME280;58763;47.982;11.516;2023-10-19T11:02:37;92445.00;;;17.50;66.17
71107;BME280;58763;47.982;11.516;2023-10-19T11:05:12;92431.25;;;17.46;65.97
71107;BME280;58763;47.982;11.516;2023-10-19T11:07:39;92432.97;;;17.54;66.21
71107;BME280;58763;47.982;11.516;2023-10-19T11:10:05;92428.44;;;17.65;65.11
71107;BME280;58763;47.982;11.516;2023-10-19T11:12:31;92432.75;;;17.66;65.38
71107;BME280;58763;47.982;11.516;2023-10-19T11:14:58;92426.59;;;17.76;65.72
71107;BME280;58763;47.982;11.516;2023-10-19T11:17:25;92424.66;;;17.77;66.37
71107;BME280;58763;47.982;11.516;2023-10-19T11:19:58;92425.91;;;17.83;65.88
71107;BME280;58763;47.982;11.516;2023-10-19T11:22:25;92402.22;;;17.61;63.84
71107;BME280;58763;47.982;11.516;2023-10-19T11:24:52;92394.94;;;17.46;66.11
71107;BME280;58763;47.982;11.516;2023-10-19T11:27:36;92387.66;;;17.53;66.91
71107;BME280;58763;47.982;11.516;2023-10-19T11:30:03;92386.94;;;17.56;67.25
71107;BME280;58763;47.982;11.516;2023-10-19T11:32:37;92389.66;;;17.56;67.68
71107;BME280;58763;47.982;11.516;2023-10-19T11:35:06;92378.50;;;17.72;68.70
71107;BME280;58763;47.982;11.516;2023-10-19T11:37:48;92371.22;;;17.83;67.17
71107;BME280;58763;47.982;11.516;2023-10-19T11:40:15;92373.94;;;17.83;66.06
71107;BME280;58763;47.982;11.516;2023-10-19T11:42:40;92356.06;;;17.89;66.18
71107;BME280;58763;47.982;11.516;2023-10-19T11:45:06;92348.59;;;17.82;63.90
71107;BME280;58763;47.982;11.516;2023-10-19T11:47:32;92338.47;;;17.86;65.29
71107;BME280;58763;47.982;11.516;2023-10-19T11:49:57;92340.81;;;17.88;67.05
71107;BME280;58763;47.982;11.516;2023-10-19T11:52:23;92341.28;;;17.97;66.23
71107;BME280;58763;47.982;11.516;2023-10-19T11:54:48;92349.22;;;18.09;65.54
71107;BME280;58763;47.982;11.516;2023-10-19T11:57:14;92338.00;;;18.18;65.49
71107;BME280;58763;47.982;11.516;2023-10-19T11:59:40;92345.34;;;18.10;65.21
71107;BME280;58763;47.982;11.516;2023-10-19T12:02:09;92341.81;;;18.10;65.47
71107;BME280;58763;47.982;11.516;2023-10-19T12:04:37;92332.94;;;18.23;65.42
71107;BME280;58763;47.982;11.516;2023-10-19T12:07:02;92342.03;;;18.34;63.81
71107;BME280;58763;47.982;11.516;2023-10-19T12:09:29;92346.00;;;18.40;62.71
71107;BME280;58763;47.982;11.516;2023-10-19T12:11:55;92345.34;;;18.50;61.61
71107;BME280;58763;47.982;11.516;2023-10-19T12:14:22;92339.09;;;18.53;61.14
71107;BME280;58763;47.982;11.516;2023-10-19T12:16:48;92334.47;;;18.57;60.12
71107;BME280;58763;47.982;11.516;2023-10-19T12:19:14;92342.97;;;18.49;60.50
71107;BME280;58763;47.982;11.516;2023-10-19T12:21:40;92341.34;;;18.44;61.83
71107;BME280;58763;47.982;11.516;2023-10-19T12:24:09;92340.63;;;18.47;61.33
71107;BME280;58763;47.982;11.516;2023-10-19T12:26:34;92332.72;;;18.42;62.77
71107;BME280;58763;47.982;11.516;2023-10-19T12:29:00;92309.78;;;18.50;61.08
71107;BME280;58763;47.982;11.516;2023-10-19T12:31:26;92290.25;;;18.55;62.34
71107;BME280;58763;47.982;11.516;2023-10-19T12:33:52;92301.56;;;18.50;62.42
71107;BME280;58763;47.982;11.516;2023-10-19T12:36:18;92290.56;;;18.47;62.31
71107;BME280;58763;47.982;11.516;2023-10-19T12:38:53;92292.63;;;18.57;62.52
71107;BME280;58763;47.982;11.516;2023-10-19T12:41:23;92291.06;;;18.59;62.14
71107;BME280;58763;47.982;11.516;2023-10-19T12:43:49;92286.78;;;18.66;63.09
71107;BME280;58763;47.982;11.516;2023-10-19T12:46:23;92287.28;;;18.78;63.21
71107;BME280;58763;47.982;11.516;2023-10-19T12:48:56;92282.28;;;18.94;63.36
71107;BME280;58763;47.982;11.516;2023-10-19T12:51:24;92269.84;;;19.11;62.18
71107;BME280;58763;47.982;11.516;2023-10-19T12:53:53;92278.09;;;19.18;62.63
71107;BME280;58763;47.982;11.516;2023-10-19T12:56:20;92265.19;;;19.22;62.26
71107;BME280;58763;47.982;11.516;2023-10-19T12:58:46;92267.50;;;19.13;62.75
71107;BME280;58763;47.982;11.516;2023-10-19T13:01:14;92261.19;;;19.02;62.36
71107;BME280;58763;47.982;11.516;2023-10-19T13:03:45;92260.03;;;19.03;62.81
71107;BME280;58763;47.982;11.516;2023-10-19T13:06:12;92269.47;;;19.12;62.42
71107;BME280;58763;47.982;11.516;2023-10-19T13:08:39;92269.88;;;19.18;61.05
71107;BME280;58763;47.982;11.516;2023-10-19T13:11:08;92276.53;;;19.17;61.69
71107;BME280;58763;47.982;11.516;2023-10-19T13:13:35;92262.75;;;19.03;61.57
71107;BME280;58763;47.982;11.516;2023-10-19T13:16:02;92263.44;;;18.86;61.52